sensor_id;sensor_type;location;lat;lon;timestamp;P1;durP1;ratioP1;P2;durP2;ratioP2
49834;SDS011;35729;52.090;13.162;2023-04-24T00:01:10;8.88;;;7.80;;
49834;SDS011;35729;52.090;13.162;2023-04-24T00:03:38;7.90;;;7.10;;
49834;SDS011;35729;52.090;13.162;2023-04-24T00:06:07;7.60;;;6.03;;
49834;SDS011;35729;52.090;13.162;2023-04-24T00:08:38;6.88;;;6.18;;
49834;SDS011;35729;52.090;13.162;2023-04-24T00:11:07;7.78;;;6.15;;
49834;SDS011;35729;52.090;13.162;2023-04-24T00:13:37;6.40;;;5.55;;
49834;SDS011;35729;52.090;13.162;2023-04-24T00:16:05;8.02;;;6.18;;
49834;SDS011;35729;52.090;13.162;2023-04-24T00:18:34;6.55;;;5.68;;
49834;SDS011;35729;52.090;13.162;2023-04-24T00:21:03;6.82;;;6.22;;
49834;SDS011;35729;52.090;13.162;2023-04-24T00:23:32;6.43;;;5.78;;
49834;SDS011;35729;52.090;13.162;2023-04-24T00:26:03;7.85;;;5.78;;
49834;SDS011;35729;52.090;13.162;2023-04-24T00:28:31;6.85;;;5.88;;
49834;SDS011;35729;52.090;13.162;2023-04-24T00:31:00;6.30;;;5.70;;
49834;SDS011;35729;52.090;13.162;2023-04-24T00:33:28;8.15;;;6.10;;
49834;SDS011;35729;52.090;13.162;2023-04-24T00:35:57;8.30;;;6.47;;
49834;SDS011;35729;52.090;13.162;2023-04-24T00:38:26;7.00;;;6.05;;
49834;SDS011;35729;52.090;13.162;2023-04-24T00:40:54;6.68;;;5.97;;
49834;SDS011;35729;52.090;13.162;2023-04-24T00:43:25;6.40;;;5.72;;
49834;SDS011;35729;52.090;13.162;2023-04-24T00:45:54;6.55;;;5.95;;
49834;SDS011;35729;52.090;13.162;2023-04-24T00:48:23;7.03;;;6.40;;
49834;SDS011;35729;52.090;13.162;2023-04-24T00:50:52;7.63;;;6.93;;
49834;SDS011;35729;52.090;13.162;2023-04-24T00:53:22;6.75;;;6.05;;
49834;SDS011;35729;52.090;13.162;2023-04-24T00:55:50;6.72;;;6.13;;
49834;SDS011;35729;52.090;13.162;2023-04-24T00:58:19;6.80;;;6.13;;
49834;SDS011;35729;52.090;13.162;2023-04-24T01:00:50;7.45;;;6.05;;
49834;SDS011;35729;52.090;13.162;2023-04-24T01:03:20;7.28;;;6.47;;
49834;SDS011;35729;52.090;13.162;2023-04-24T01:05:52;6.88;;;6.18;;
49834;SDS011;35729;52.090;13.162;2023-04-24T01:08:22;8.27;;;6.43;;
49834;SDS011;35729;52.090;13.162;2023-04-24T01:10:52;6.85;;;6.13;;
49834;SDS011;35729;52.090;13.162;2023-04-24T01:13:21;7.07;;;6.00;;
49834;SDS011;35729;52.090;13.162;2023-04-24T01:15:52;6.60;;;5.90;;
49834;SDS011;35729;52.090;13.162;2023-04-24T01:18:20;6.53;;;5.88;;
49834;SDS011;35729;52.090;13.162;2023-04-24T01:20:49;6.43;;;5.55;;
49834;SDS011;35729;52.090;13.162;2023-04-24T01:23:23;8.38;;;6.03;;
49834;SDS011;35729;52.090;13.162;2023-04-24T01:25:52;6.80;;;6.03;;
49834;SDS011;35729;52.090;13.162;2023-04-24T01:28:20;6.13;;;4.93;;
49834;SDS011;35729;52.090;13.162;2023-04-24T01:30:50;5.97;;;5.38;;
49834;SDS011;35729;52.090;13.162;2023-04-24T01:33:19;7.10;;;5.97;;
49834;SDS011;35729;52.090;13.162;2023-04-24T01:35:49;6.50;;;5.90;;
49834;SDS011;35729;52.090;13.162;2023-04-24T01:38:17;6.45;;;5.85;;
49834;SDS011;35729;52.090;13.162;2023-04-24T01:40:48;6.15;;;5.55;;
49834;SDS011;35729;52.090;13.162;2023-04-24T01:43:17;18.92;;;12.90;;
49834;SDS011;35729;52.090;13.162;2023-04-24T01:45:46;17.48;;;10.80;;
49834;SDS011;35729;52.090;13.162;2023-04-24T01:48:15;14.77;;;10.77;;
49834;SDS011;35729;52.090;13.162;2023-04-24T01:50:43;13.43;;;9.35;;
49834;SDS011;35729;52.090;13.162;2023-04-24T01:53:12;8.23;;;6.47;;
49834;SDS011;35729;52.090;13.162;2023-04-24T01:55:40;6.57;;;5.40;;
49834;SDS011;35729;52.090;13.162;2023-04-24T01:58:11;6.50;;;5.07;;
49834;SDS011;35729;52.090;13.162;2023-04-24T02:00:40;6.13;;;5.38;;
49834;SDS011;35729;52.090;13.162;2023-04-24T02:03:08;6.43;;;5.28;;
49834;SDS011;35729;52.090;13.162;2023-04-24T02:05:37;5.85;;;5.25;;
49834;SDS011;35729;52.090;13.162;2023-04-24T02:08:05;7.30;;;5.47;;
49834;SDS011;35729;52.090;13.162;2023-04-24T02:10:34;7.07;;;5.22;;
49834;SDS011;35729;52.090;13.162;2023-04-24T02:13:03;5.75;;;5.15;;
49834;SDS011;35729;52.090;13.162;2023-04-24T02:15:34;7.68;;;5.20;;
49834;SDS011;35729;52.090;13.162;2023-04-24T02:18:02;8.57;;;5.63;;
49834;SDS011;35729;52.090;13.162;2023-04-24T02:20:32;6.00;;;5.40;;
49834;SDS011;35729;52.090;13.162;2023-04-24T02:23:02;6.30;;;5.60;;
49834;SDS011;35729;52.090;13.162;2023-04-24T02:25:30;6.80;;;5.00;;
49834;SDS011;35729;52.090;13.162;2023-04-24T02:27:58;6.30;;;4.88;;
49834;SDS011;35729;52.090;13.162;2023-04-24T02:30:28;6.05;;;5.45;;
49834;SDS011;35729;52.090;13.162;2023-04-24T02:32:59;6.72;;;6.00;;
49834;SDS011;35729;52.090;13.162;2023-04-24T02:35:28;5.47;;;4.97;;
49834;SDS011;35729;52.090;13.162;2023-04-24T02:37:56;6.35;;;5.28;;
49834;SDS011;35729;52.090;13.162;2023-04-24T02:40:25;6.20;;;4.75;;
49834;SDS011;35729;52.090;13.162;2023-04-24T02:42:53;7.40;;;5.55;;
49834;SDS011;35729;52.090;13.162;2023-04-24T02:45:22;6.38;;;5.40;;
49834;SDS011;35729;52.090;13.162;2023-04-24T02:47:50;7.65;;;5.18;;
49834;SDS011;35729;52.090;13.162;2023-04-24T02:50:28;5.65;;;5.03;;
49834;SDS011;35729;52.090;13.162;2023-04-24T02:52:56;5.60;;;5.03;;
49834;SDS011;35729;52.090;13.162;2023-04-24T02:55:25;5.65;;;4.60;;
49834;SDS011;35729;52.090;13.162;2023-04-24T02:57:53;6.25;;;5.10;;
49834;SDS011;35729;52.090;13.162;2023-04-24T03:00:22;5.72;;;5.13;;
49834;SDS011;35729;52.090;13.162;2023-04-24T03:02:51;6.68;;;5.47;;
49834;SDS011;35729;52.090;13.162;2023-04-24T03:05:19;6.88;;;6.13;;
49834;SDS011;35729;52.090;13.162;2023-04-24T03:07:50;6.30;;;5.70;;
49834;SDS011;35729;52.090;13.162;2023-04-24T03:10:20;5.78;;;5.18;;
49834;SDS011;35729;52.090;13.162;2023-04-24T03:12:48;5.20;;;4.72;;
49834;SDS011;35729;52.090;13.162;2023-04-24T03:15:17;5.63;;;5.03;;
49834;SDS011;35729;52.090;13.162;2023-04-24T03:17:45;4.68;;;4.28;;
49834;SDS011;35729;52.090;13.162;2023-04-24T03:20:15;4.28;;;3.88;;
49834;SDS011;35729;52.090;13.162;2023-04-24T03:22:44;4.72;;;3.72;;
49834;SDS011;35729;52.090;13.162;2023-04-24T03:25:15;5.45;;;4.03;;
49834;SDS011;35729;52.090;13.162;2023-04-24T03:27:43;5.20;;;4.10;;
49834;SDS011;35729;52.090;13.162;2023-04-24T03:30:12;6.15;;;3.63;;
49834;SDS011;35729;52.090;13.162;2023-04-24T03:32:40;4.20;;;3.72;;
49834;SDS011;35729;52.090;13.162;2023-04-24T03:35:09;4.07;;;3.67;;
49834;SDS011;35729;52.090;13.162;2023-04-24T03:37:37;4.75;;;4.28;;
49834;SDS011;35729;52.090;13.162;2023-04-24T03:40:07;4.55;;;4.15;;
49834;SDS011;35729;52.090;13.162;2023-04-24T03:42:39;6.35;;;4.15;;
49834;SDS011;35729;52.090;13.162;2023-04-24T03:45:08;5.25;;;4.50;;
49834;SDS011;35729;52.090;13.162;2023-04-24T03:47:37;5.00;;;4.35;;
49834;SDS011;35729;52.090;13.162;2023-04-24T03:50:06;5.03;;;4.45;;
49834;SDS011;35729;52.090;13.162;2023-04-24T03:52:35;4.75;;;4.22;;
49834;SDS011;35729;52.090;13.162;2023-04-24T03:55:04;5.90;;;4.25;;
49834;SDS011;35729;52.090;13.162;2023-04-24T03:57:34;5.30;;;4.70;;
49834;SDS011;35729;52.090;13.162;2023-04-24T04:00:05;5.07;;;4.60;;
49834;SDS011;35729;52.090;13.162;2023-04-24T04:02:35;4.35;;;3.95;;
49834;SDS011;35729;52.090;13.162;2023-04-24T04:05:04;5.32;;;4.53;;
49834;SDS011;35729;52.090;13.162;2023-04-24T04:07:33;4.47;;;4.07;;
49834;SDS011;35729;52.090;13.162;2023-04-24T04:10:01;7.03;;;4.20;;
49834;SDS011;35729;52.090;13.162;2023-04-24T04:12:32;7.10;;;4.70;;
49834;SDS011;35729;52.090;13.162;2023-04-24T04:15:00;4.07;;;3.67;;
49834;SDS011;35729;52.090;13.162;2023-04-24T04:17:32;4.78;;;3.80;;
49834;SDS011;35729;52.090;13.162;2023-04-24T04:20:07;4.30;;;3.90;;
49834;SDS011;35729;52.090;13.162;2023-04-24T04:22:37;4.32;;;3.92;;
49834;SDS011;35729;52.090;13.162;2023-04-24T04:25:05;3.97;;;3.60;;
49834;SDS011;35729;52.090;13.162;2023-04-24T04:27:34;4.55;;;3.55;;
49834;SDS011;35729;52.090;13.162;2023-04-24T04:30:03;4.05;;;3.60;;
49834;SDS011;35729;52.090;13.162;2023-04-24T04:32:35;5.75;;;3.53;;
49834;SDS011;35729;52.090;13.162;2023-04-24T04:35:03;14.15;;;3.40;;
49834;SDS011;35729;52.090;13.162;2023-04-24T04:37:32;4.90;;;3.10;;
49834;SDS011;35729;52.090;13.162;2023-04-24T04:40:01;3.20;;;2.80;;
49834;SDS011;35729;52.090;13.162;2023-04-24T04:42:32;3.03;;;2.60;;
49834;SDS011;35729;52.090;13.162;2023-04-24T04:45:05;3.05;;;2.50;;
49834;SDS011;35729;52.090;13.162;2023-04-24T04:47:39;2.83;;;2.47;;
49834;SDS011;35729;52.090;13.162;2023-04-24T04:50:07;3.45;;;2.33;;
49834;SDS011;35729;52.090;13.162;2023-04-24T04:52:37;2.60;;;2.38;;
49834;SDS011;35729;52.090;13.162;2023-04-24T04:55:06;5.03;;;2.30;;
49834;SDS011;35729;52.090;13.162;2023-04-24T04:57:35;2.50;;;2.25;;
49834;SDS011;35729;52.090;13.162;2023-04-24T05:00:04;4.82;;;3.08;;
49834;SDS011;35729;52.090;13.162;2023-04-24T05:02:35;4.88;;;4.25;;
49834;SDS011;35729;52.090;13.162;2023-04-24T05:05:07;5.25;;;3.45;;
49834;SDS011;35729;52.090;13.162;2023-04-24T05:07:36;3.95;;;2.90;;
49834;SDS011;35729;52.090;13.162;2023-04-24T05:10:05;4.22;;;2.90;;
49834;SDS011;35729;52.090;13.162;2023-04-24T05:12:34;3.22;;;2.92;;
49834;SDS011;35729;52.090;13.162;2023-04-24T05:15:03;4.93;;;3.05;;
49834;SDS011;35729;52.090;13.162;2023-04-24T05:17:32;4.32;;;2.38;;
49834;SDS011;35729;52.090;13.162;2023-04-24T05:20:00;4.40;;;2.90;;
49834;SDS011;35729;52.090;13.162;2023-04-24T05:22:33;2.92;;;2.35;;
49834;SDS011;35729;52.090;13.162;2023-04-24T05:25:01;2.50;;;2.17;;
49834;SDS011;35729;52.090;13.162;2023-04-24T05:27:30;3.05;;;2.00;;
49834;SDS011;35729;52.090;13.162;2023-04-24T05:29:59;7.30;;;2.03;;
49834;SDS011;35729;52.090;13.162;2023-04-24T05:32:27;2.97;;;2.08;;
49834;SDS011;35729;52.090;13.162;2023-04-24T05:34:56;2.10;;;1.90;;
49834;SDS011;35729;52.090;13.162;2023-04-24T05:37:24;2.22;;;1.40;;
49834;SDS011;35729;52.090;13.162;2023-04-24T05:39:55;2.55;;;1.52;;
49834;SDS011;35729;52.090;13.162;2023-04-24T05:42:24;2.03;;;1.58;;
49834;SDS011;35729;52.090;13.162;2023-04-24T05:44:52;2.33;;;1.73;;
49834;SDS011;35729;52.090;13.162;2023-04-24T05:47:21;1.52;;;1.42;;
49834;SDS011;35729;52.090;13.162;2023-04-24T05:49:49;3.53;;;1.63;;
49834;SDS011;35729;52.090;13.162;2023-04-24T05:52:18;3.47;;;1.45;;
49834;SDS011;35729;52.090;13.162;2023-04-24T05:54:46;3.35;;;1.85;;
49834;SDS011;35729;52.090;13.162;2023-04-24T05:57:17;2.50;;;1.65;;
49834;SDS011;35729;52.090;13.162;2023-04-24T05:59:46;2.38;;;1.48;;
49834;SDS011;35729;52.090;13.162;2023-04-24T06:02:14;4.05;;;1.55;;
49834;SDS011;35729;52.090;13.162;2023-04-24T06:04:43;3.55;;;1.95;;
49834;SDS011;35729;52.090;13.162;2023-04-24T06:07:12;1.50;;;1.35;;
49834;SDS011;35729;52.090;13.162;2023-04-24T06:09:41;2.05;;;1.50;;
49834;SDS011;35729;52.090;13.162;2023-04-24T06:12:09;3.35;;;1.55;;
49834;SDS011;35729;52.090;13.162;2023-04-24T06:14:40;2.83;;;1.13;;
49834;SDS011;35729;52.090;13.162;2023-04-24T06:17:09;1.40;;;1.15;;
49834;SDS011;35729;52.090;13.162;2023-04-24T06:19:37;2.45;;;1.42;;
49834;SDS011;35729;52.090;13.162;2023-04-24T06:22:06;2.47;;;1.55;;
49834;SDS011;35729;52.090;13.162;2023-04-24T06:24:35;1.85;;;1.50;;
49834;SDS011;35729;52.090;13.162;2023-04-24T06:27:03;1.73;;;1.27;;
49834;SDS011;35729;52.090;13.162;2023-04-24T06:29:32;3.00;;;1.10;;
49834;SDS011;35729;52.090;13.162;2023-04-24T06:32:03;1.77;;;1.40;;
49834;SDS011;35729;52.090;13.162;2023-04-24T06:34:32;1.40;;;1.30;;
49834;SDS011;35729;52.090;13.162;2023-04-24T06:37:01;4.32;;;1.40;;
49834;SDS011;35729;52.090;13.162;2023-04-24T06:39:30;4.07;;;1.48;;
49834;SDS011;35729;52.090;13.162;2023-04-24T06:41:58;1.92;;;1.40;;
49834;SDS011;35729;52.090;13.162;2023-04-24T06:44:27;3.25;;;1.25;;
49834;SDS011;35729;52.090;13.162;2023-04-24T06:46:55;1.77;;;1.10;;
49834;SDS011;35729;52.090;13.162;2023-04-24T06:49:39;2.15;;;1.23;;
49834;SDS011;35729;52.090;13.162;2023-04-24T06:52:07;1.38;;;1.17;;
49834;SDS011;35729;52.090;13.162;2023-04-24T06:54:36;1.73;;;1.17;;
49834;SDS011;35729;52.090;13.162;2023-04-24T06:57:04;1.33;;;1.10;;
49834;SDS011;35729;52.090;13.162;2023-04-24T06:59:33;2.63;;;1.10;;
49834;SDS011;35729;52.090;13.162;2023-04-24T07:02:01;1.88;;;0.98;;
49834;SDS011;35729;52.090;13.162;2023-04-24T07:04:31;3.15;;;1.10;;
49834;SDS011;35729;52.090;13.162;2023-04-24T07:07:02;2.55;;;1.23;;
49834;SDS011;35729;52.090;13.162;2023-04-24T07:09:31;2.40;;;1.30;;
49834;SDS011;35729;52.090;13.162;2023-04-24T07:12:00;1.48;;;1.02;;
49834;SDS011;35729;52.090;13.162;2023-04-24T07:14:28;2.15;;;1.15;;
49834;SDS011;35729;52.090;13.162;2023-04-24T07:16:57;2.03;;;1.10;;
49834;SDS011;35729;52.090;13.162;2023-04-24T07:19:26;2.67;;;1.40;;
49834;SDS011;35729;52.090;13.162;2023-04-24T07:21:54;2.33;;;1.13;;
49834;SDS011;35729;52.090;13.162;2023-04-24T07:24:26;3.42;;;1.20;;
49834;SDS011;35729;52.090;13.162;2023-04-24T07:26:54;1.50;;;1.08;;
49834;SDS011;35729;52.090;13.162;2023-04-24T07:29:23;2.60;;;1.05;;
49834;SDS011;35729;52.090;13.162;2023-04-24T07:31:51;2.40;;;1.20;;
49834;SDS011;35729;52.090;13.162;2023-04-24T07:34:21;1.80;;;1.20;;
49834;SDS011;35729;52.090;13.162;2023-04-24T07:36:49;1.55;;;1.25;;
49834;SDS011;35729;52.090;13.162;2023-04-24T07:39:18;1.30;;;1.10;;
49834;SDS011;35729;52.090;13.162;2023-04-24T07:41:49;3.17;;;1.17;;
49834;SDS011;35729;52.090;13.162;2023-04-24T07:44:18;2.75;;;1.50;;
49834;SDS011;35729;52.090;13.162;2023-04-24T07:46:46;2.25;;;1.00;;
49834;SDS011;35729;52.090;13.162;2023-04-24T07:49:15;3.08;;;1.20;;
49834;SDS011;35729;52.090;13.162;2023-04-24T07:51:44;2.47;;;0.90;;
49834;SDS011;35729;52.090;13.162;2023-04-24T07:54:13;1.60;;;0.93;;
49834;SDS011;35729;52.090;13.162;2023-04-24T07:56:42;2.40;;;1.05;;
49834;SDS011;35729;52.090;13.162;2023-04-24T07:59:13;2.53;;;1.20;;
49834;SDS011;35729;52.090;13.162;2023-04-24T08:01:42;1.73;;;0.98;;
49834;SDS011;35729;52.090;13.162;2023-04-24T08:04:10;1.52;;;1.10;;
49834;SDS011;35729;52.090;13.162;2023-04-24T08:06:39;2.65;;;1.92;;
49834;SDS011;35729;52.090;13.162;2023-04-24T08:09:07;3.50;;;1.40;;
49834;SDS011;35729;52.090;13.162;2023-04-24T08:11:36;2.28;;;0.90;;
49834;SDS011;35729;52.090;13.162;2023-04-24T08:14:04;1.17;;;0.98;;
49834;SDS011;35729;52.090;13.162;2023-04-24T08:16:35;1.25;;;0.98;;
49834;SDS011;35729;52.090;13.162;2023-04-24T08:19:04;2.83;;;1.27;;
49834;SDS011;35729;52.090;13.162;2023-04-24T08:21:32;1.20;;;0.98;;
49834;SDS011;35729;52.090;13.162;2023-04-24T08:24:01;0.95;;;0.65;;
49834;SDS011;35729;52.090;13.162;2023-04-24T08:26:32;3.97;;;0.88;;
49834;SDS011;35729;52.090;13.162;2023-04-24T08:29:01;1.90;;;0.80;;
49834;SDS011;35729;52.090;13.162;2023-04-24T08:31:29;2.13;;;0.88;;
49834;SDS011;35729;52.090;13.162;2023-04-24T08:34:00;1.38;;;0.85;;
49834;SDS011;35729;52.090;13.162;2023-04-24T08:36:29;2.70;;;1.15;;
49834;SDS011;35729;52.090;13.162;2023-04-24T08:38:58;1.50;;;0.68;;
49834;SDS011;35729;52.090;13.162;2023-04-24T08:41:27;2.33;;;0.90;;
49834;SDS011;35729;52.090;13.162;2023-04-24T08:43:55;1.42;;;0.60;;
49834;SDS011;35729;52.090;13.162;2023-04-24T08:46:25;3.25;;;1.00;;
49834;SDS011;35729;52.090;13.162;2023-04-24T08:48:54;3.10;;;0.77;;
49834;SDS011;35729;52.090;13.162;2023-04-24T08:51:25;1.52;;;1.00;;
49834;SDS011;35729;52.090;13.162;2023-04-24T08:53:55;2.60;;;1.25;;
49834;SDS011;35729;52.090;13.162;2023-04-24T08:56:25;1.58;;;0.68;;
49834;SDS011;35729;52.090;13.162;2023-04-24T08:58:56;1.65;;;0.80;;
49834;SDS011;35729;52.090;13.162;2023-04-24T09:01:25;2.03;;;0.70;;
49834;SDS011;35729;52.090;13.162;2023-04-24T09:03:55;3.70;;;0.88;;
49834;SDS011;35729;52.090;13.162;2023-04-24T09:06:26;1.75;;;0.70;;
49834;SDS011;35729;52.090;13.162;2023-04-24T09:08:55;2.35;;;0.63;;
49834;SDS011;35729;52.090;13.162;2023-04-24T09:11:29;2.90;;;0.90;;
49834;SDS011;35729;52.090;13.162;2023-04-24T09:13:58;1.05;;;0.50;;
49834;SDS011;35729;52.090;13.162;2023-04-24T09:16:27;1.15;;;0.90;;
49834;SDS011;35729;52.090;13.162;2023-04-24T09:18:55;2.15;;;0.70;;
49834;SDS011;35729;52.090;13.162;2023-04-24T09:21:30;1.83;;;1.20;;
49834;SDS011;35729;52.090;13.162;2023-04-24T09:24:00;1.20;;;0.65;;
49834;SDS011;35729;52.090;13.162;2023-04-24T09:26:31;2.30;;;0.80;;
49834;SDS011;35729;52.090;13.162;2023-04-24T09:29:00;1.92;;;0.57;;
49834;SDS011;35729;52.090;13.162;2023-04-24T09:31:29;1.05;;;0.60;;
49834;SDS011;35729;52.090;13.162;2023-04-24T09:33:59;2.00;;;0.70;;
49834;SDS011;35729;52.090;13.162;2023-04-24T09:36:33;0.82;;;0.40;;
49834;SDS011;35729;52.090;13.162;2023-04-24T09:39:05;1.23;;;0.60;;
49834;SDS011;35729;52.090;13.162;2023-04-24T09:41:36;1.27;;;0.65;;
49834;SDS011;35729;52.090;13.162;2023-04-24T09:44:13;0.90;;;0.70;;
49834;SDS011;35729;52.090;13.162;2023-04-24T09:46:46;1.83;;;0.88;;
49834;SDS011;35729;52.090;13.162;2023-04-24T09:49:21;1.88;;;0.60;;
49834;SDS011;35729;52.090;13.162;2023-04-24T09:51:54;2.63;;;0.70;;
49834;SDS011;35729;52.090;13.162;2023-04-24T09:54:32;1.98;;;0.68;;
49834;SDS011;35729;52.090;13.162;2023-04-24T09:57:01;2.22;;;0.73;;
49834;SDS011;35729;52.090;13.162;2023-04-24T09:59:41;1.58;;;0.73;;
49834;SDS011;35729;52.090;13.162;2023-04-24T10:02:16;1.30;;;0.90;;
49834;SDS011;35729;52.090;13.162;2023-04-24T10:04:53;3.35;;;1.10;;
49834;SDS011;35729;52.090;13.162;2023-04-24T10:07:28;4.18;;;0.70;;
49834;SDS011;35729;52.090;13.162;2023-04-24T10:09:56;3.20;;;0.75;;
49834;SDS011;35729;52.090;13.162;2023-04-24T10:15:36;2.15;;;0.60;;
49834;SDS011;35729;52.090;13.162;2023-04-24T10:18:05;1.23;;;0.70;;
49834;SDS011;35729;52.090;13.162;2023-04-24T10:20:34;1.20;;;0.60;;
49834;SDS011;35729;52.090;13.162;2023-04-24T10:23:07;0.75;;;0.55;;
49834;SDS011;35729;52.090;13.162;2023-04-24T10:25:35;1.05;;;0.70;;
49834;SDS011;35729;52.090;13.162;2023-04-24T10:28:04;1.52;;;0.65;;
49834;SDS011;35729;52.090;13.162;2023-04-24T10:30:34;1.45;;;0.60;;
49834;SDS011;35729;52.090;13.162;2023-04-24T10:33:03;0.50;;;0.50;;
49834;SDS011;35729;52.090;13.162;2023-04-24T10:35:32;1.60;;;0.60;;
49834;SDS011;35729;52.090;13.162;2023-04-24T10:38:08;3.90;;;0.70;;
49834;SDS011;35729;52.090;13.162;2023-04-24T10:40:39;2.30;;;0.90;;
49834;SDS011;35729;52.090;13.162;2023-04-24T10:43:08;2.35;;;0.60;;
49834;SDS011;35729;52.090;13.162;2023-04-24T10:45:37;1.77;;;0.60;;
49834;SDS011;35729;52.090;13.162;2023-04-24T10:48:06;2.03;;;1.10;;
49834;SDS011;35729;52.090;13.162;2023-04-24T10:50:42;3.33;;;0.85;;
49834;SDS011;35729;52.090;13.162;2023-04-24T10:53:18;1.23;;;0.80;;
49834;SDS011;35729;52.090;13.162;2023-04-24T10:55:48;2.55;;;0.60;;
49834;SDS011;35729;52.090;13.162;2023-04-24T10:58:21;2.00;;;0.75;;
49834;SDS011;35729;52.090;13.162;2023-04-24T11:00:57;1.98;;;0.80;;
49834;SDS011;35729;52.090;13.162;2023-04-24T11:03:27;1.27;;;0.75;;
49834;SDS011;35729;52.090;13.162;2023-04-24T11:05:58;2.15;;;0.90;;
49834;SDS011;35729;52.090;13.162;2023-04-24T11:08:36;3.78;;;1.10;;
49834;SDS011;35729;52.090;13.162;2023-04-24T11:11:09;1.33;;;0.80;;
49834;SDS011;35729;52.090;13.162;2023-04-24T11:16:30;0.93;;;0.68;;
49834;SDS011;35729;52.090;13.162;2023-04-24T11:19:01;1.23;;;0.70;;
49834;SDS011;35729;52.090;13.162;2023-04-24T11:21:31;3.30;;;1.00;;
49834;SDS011;35729;52.090;13.162;2023-04-24T11:26:56;2.35;;;0.50;;
49834;SDS011;35729;52.090;13.162;2023-04-24T11:32:27;1.63;;;0.60;;
49834;SDS011;35729;52.090;13.162;2023-04-24T11:34:57;1.10;;;0.55;;
49834;SDS011;35729;52.090;13.162;2023-04-24T11:37:27;2.28;;;0.77;;
49834;SDS011;35729;52.090;13.162;2023-04-24T11:39:59;3.45;;;0.70;;
49834;SDS011;35729;52.090;13.162;2023-04-24T11:42:28;1.02;;;0.60;;
49834;SDS011;35729;52.090;13.162;2023-04-24T11:45:01;2.10;;;0.83;;
49834;SDS011;35729;52.090;13.162;2023-04-24T11:50:07;2.67;;;0.50;;
49834;SDS011;35729;52.090;13.162;2023-04-24T11:52:38;2.58;;;0.50;;
49834;SDS011;35729;52.090;13.162;2023-04-24T11:55:12;1.23;;;0.50;;
49834;SDS011;35729;52.090;13.162;2023-04-24T11:57:53;2.30;;;0.60;;
49834;SDS011;35729;52.090;13.162;2023-04-24T12:00:24;1.48;;;0.40;;
49834;SDS011;35729;52.090;13.162;2023-04-24T12:03:03;0.60;;;0.30;;
49834;SDS011;35729;52.090;13.162;2023-04-24T12:05:33;1.35;;;0.70;;
49834;SDS011;35729;52.090;13.162;2023-04-24T12:08:02;2.83;;;0.88;;
49834;SDS011;35729;52.090;13.162;2023-04-24T12:10:33;1.40;;;0.40;;
49834;SDS011;35729;52.090;13.162;2023-04-24T12:13:02;1.63;;;0.73;;
49834;SDS011;35729;52.090;13.162;2023-04-24T12:15:31;2.72;;;0.77;;
49834;SDS011;35729;52.090;13.162;2023-04-24T12:17:59;4.32;;;1.38;;
49834;SDS011;35729;52.090;13.162;2023-04-24T12:20:28;2.25;;;0.52;;
49834;SDS011;35729;52.090;13.162;2023-04-24T12:22:58;0.63;;;0.50;;
49834;SDS011;35729;52.090;13.162;2023-04-24T12:25:28;2.95;;;0.65;;
49834;SDS011;35729;52.090;13.162;2023-04-24T12:28:10;2.45;;;0.63;;
49834;SDS011;35729;52.090;13.162;2023-04-24T12:30:41;2.05;;;0.50;;
49834;SDS011;35729;52.090;13.162;2023-04-24T12:33:11;1.98;;;0.60;;
49834;SDS011;35729;52.090;13.162;2023-04-24T12:35:40;1.23;;;0.55;;
49834;SDS011;35729;52.090;13.162;2023-04-24T12:38:09;0.80;;;0.52;;
49834;SDS011;35729;52.090;13.162;2023-04-24T12:40:39;1.17;;;0.50;;
49834;SDS011;35729;52.090;13.162;2023-04-24T12:43:15;2.25;;;0.57;;
49834;SDS011;35729;52.090;13.162;2023-04-24T12:45:51;1.63;;;0.60;;
49834;SDS011;35729;52.090;13.162;2023-04-24T12:48:19;5.20;;;1.00;;
49834;SDS011;35729;52.090;13.162;2023-04-24T12:50:48;1.48;;;0.55;;
49834;SDS011;35729;52.090;13.162;2023-04-24T12:53:16;2.85;;;0.82;;
49834;SDS011;35729;52.090;13.162;2023-04-24T12:55:45;1.60;;;0.40;;
49834;SDS011;35729;52.090;13.162;2023-04-24T12:58:20;1.60;;;1.00;;
49834;SDS011;35729;52.090;13.162;2023-04-24T13:00:49;8.93;;;5.85;;
49834;SDS011;35729;52.090;13.162;2023-04-24T13:03:19;5.07;;;2.35;;
49834;SDS011;35729;52.090;13.162;2023-04-24T13:05:47;2.95;;;0.73;;
49834;SDS011;35729;52.090;13.162;2023-04-24T13:08:16;1.10;;;0.63;;
49834;SDS011;35729;52.090;13.162;2023-04-24T13:10:44;1.35;;;0.65;;
49834;SDS011;35729;52.090;13.162;2023-04-24T13:13:13;1.35;;;0.70;;
49834;SDS011;35729;52.090;13.162;2023-04-24T13:15:44;3.63;;;0.68;;
49834;SDS011;35729;52.090;13.162;2023-04-24T13:18:13;0.70;;;0.60;;
49834;SDS011;35729;52.090;13.162;2023-04-24T13:20:41;0.90;;;0.60;;
49834;SDS011;35729;52.090;13.162;2023-04-24T13:23:12;0.98;;;0.43;;
49834;SDS011;35729;52.090;13.162;2023-04-24T13:25:41;0.85;;;0.45;;
49834;SDS011;35729;52.090;13.162;2023-04-24T13:28:09;2.42;;;0.80;;
49834;SDS011;35729;52.090;13.162;2023-04-24T13:30:37;0.98;;;0.70;;
49834;SDS011;35729;52.090;13.162;2023-04-24T13:33:09;2.95;;;0.68;;
49834;SDS011;35729;52.090;13.162;2023-04-24T13:35:37;1.20;;;0.80;;
49834;SDS011;35729;52.090;13.162;2023-04-24T13:38:05;2.15;;;0.70;;
49834;SDS011;35729;52.090;13.162;2023-04-24T13:40:34;1.08;;;0.80;;
49834;SDS011;35729;52.090;13.162;2023-04-24T13:43:02;3.60;;;0.70;;
49834;SDS011;35729;52.090;13.162;2023-04-24T13:45:31;2.92;;;0.50;;
49834;SDS011;35729;52.090;13.162;2023-04-24T13:48:24;1.27;;;0.50;;
49834;SDS011;35729;52.090;13.162;2023-04-24T13:51:05;1.00;;;0.70;;
49834;SDS011;35729;52.090;13.162;2023-04-24T13:53:33;2.13;;;0.70;;
49834;SDS011;35729;52.090;13.162;2023-04-24T13:56:03;1.77;;;0.68;;
49834;SDS011;35729;52.090;13.162;2023-04-24T13:58:33;1.75;;;0.50;;
49834;SDS011;35729;52.090;13.162;2023-04-24T14:01:01;1.20;;;0.50;;
49834;SDS011;35729;52.090;13.162;2023-04-24T14:03:33;1.65;;;0.50;;
49834;SDS011;35729;52.090;13.162;2023-04-24T14:06:01;1.75;;;0.77;;
49834;SDS011;35729;52.090;13.162;2023-04-24T14:08:31;5.90;;;0.80;;
49834;SDS011;35729;52.090;13.162;2023-04-24T14:10:59;1.92;;;0.85;;
49834;SDS011;35729;52.090;13.162;2023-04-24T14:13:28;1.42;;;0.68;;
49834;SDS011;35729;52.090;13.162;2023-04-24T14:15:57;2.75;;;1.08;;
49834;SDS011;35729;52.090;13.162;2023-04-24T14:18:26;2.67;;;0.68;;
49834;SDS011;35729;52.090;13.162;2023-04-24T14:20:57;4.05;;;1.30;;
49834;SDS011;35729;52.090;13.162;2023-04-24T14:23:26;0.93;;;0.65;;
49834;SDS011;35729;52.090;13.162;2023-04-24T14:25:54;4.72;;;0.80;;
49834;SDS011;35729;52.090;13.162;2023-04-24T14:28:23;1.30;;;0.80;;
49834;SDS011;35729;52.090;13.162;2023-04-24T14:30:52;0.90;;;0.70;;
49834;SDS011;35729;52.090;13.162;2023-04-24T14:33:21;0.98;;;0.88;;
49834;SDS011;35729;52.090;13.162;2023-04-24T14:35:49;1.00;;;0.70;;
49834;SDS011;35729;52.090;13.162;2023-04-24T14:38:20;1.13;;;0.50;;
49834;SDS011;35729;52.090;13.162;2023-04-24T14:40:49;0.70;;;0.70;;
49834;SDS011;35729;52.090;13.162;2023-04-24T14:43:18;5.65;;;0.90;;
49834;SDS011;35729;52.090;13.162;2023-04-24T14:45:46;2.25;;;0.82;;
49834;SDS011;35729;52.090;13.162;2023-04-24T14:48:14;2.20;;;0.77;;
49834;SDS011;35729;52.090;13.162;2023-04-24T14:50:43;0.95;;;0.65;;
49834;SDS011;35729;52.090;13.162;2023-04-24T14:53:11;0.90;;;0.68;;
49834;SDS011;35729;52.090;13.162;2023-04-24T14:55:42;1.33;;;0.70;;
49834;SDS011;35729;52.090;13.162;2023-04-24T14:58:11;0.70;;;0.60;;
49834;SDS011;35729;52.090;13.162;2023-04-24T15:00:39;1.48;;;0.70;;
49834;SDS011;35729;52.090;13.162;2023-04-24T15:03:08;3.25;;;1.38;;